Time;durP1;ratioP1;P1;durP2;ratioP2;P2;SDS_P1;SDS_P2;PMS_P1;PMS_P2;Temp;Humidity;BMP_temperature;BMP_pressure;BME280_temperature;BME280_humidity;BME280_pressure;Samples;Min_cycle;Max_cycle;Signal;HPM_P1;HPM_P2
2023/07/23 00:01:21;;;;;;;6.20;1.80;;;;;;;12.02;72.16;99288.52;106563;1273;24378;-52
2023/07/23 00:03:49;;;;;;;3.20;1.70;;;;;;;12.07;72.33;99275.20;106424;1265;25420;-51
2023/07/23 00:06:18;;;;;;;3.90;1.40;;;;;;;12.11;72.39;99264.66;106492;1274;22768;-51
2023/07/23 00:08:46;;;;;;;2.90;1.40;;;;;;;12.15;72.58;99260.40;106413;1258;24052;-53
2023/07/23 00:11:15;;;;;;;1.90;1.60;;;;;;;12.17;72.50;99260.63;106356;1274;99906;-53
2023/07/23 00:13:44;;;;;;;3.80;1.40;;;;;;;12.19;72.53;99266.89;107433;1258;24298;-52
2023/07/23 00:16:12;;;;;;;1.90;1.20;;;;;;;12.24;72.60;99273.09;106270;1273;99968;-53
2023/07/23 00:18:41;;;;;;;2.10;1.30;;;;;;;12.26;72.65;99274.15;106513;1273;24174;-53
2023/07/23 00:21:09;;;;;;;2.80;1.70;;;;;;;12.27;72.71;99278.67;106552;1273;25991;-48
2023/07/23 00:23:38;;;;;;;2.30;1.50;;;;;;;12.27;72.68;99286.18;106343;1266;99202;-49
2023/07/23 00:26:06;;;;;;;1.40;1.30;;;;;;;12.27;72.81;99282.67;106423;1272;25380;-52
2023/07/23 00:28:35;;;;;;;2.80;1.70;;;;;;;12.28;72.91;99282.40;106333;1271;100537;-52
2023/07/23 00:31:04;;;;;;;4.40;1.40;;;;;;;12.31;73.01;99281.89;106332;1272;22579;-52
2023/07/23 00:33:33;;;;;;;2.60;1.50;;;;;;;12.34;73.08;99278.79;106447;1272;22524;-52
2023/07/23 00:36:02;;;;;;;2.70;1.60;;;;;;;12.37;73.15;99276.36;106324;1272;99283;-49
2023/07/23 00:38:30;;;;;;;1.80;1.20;;;;;;;12.38;73.13;99269.97;106490;1272;25248;-51
2023/07/23 00:40:59;;;;;;;2.60;1.70;;;;;;;12.42;73.21;99262.94;106272;1274;99365;-50
2023/07/23 00:43:28;;;;;;;2.90;1.70;;;;;;;12.47;73.23;99262.45;106465;1273;25556;-50
2023/07/23 00:45:57;;;;;;;3.20;1.70;;;;;;;12.51;73.24;99258.85;106476;1271;99343;-52
2023/07/23 00:48:26;;;;;;;2.30;1.40;;;;;;;12.57;73.23;99248.88;106444;1272;25016;-49
2023/07/23 00:50:55;;;;;;;1.90;1.40;;;;;;;12.61;73.39;99240.10;106586;1272;25246;-50
2023/07/23 00:53:25;;;;;;;1.60;1.20;;;;;;;12.65;73.42;99231.61;106395;1272;99644;-48
2023/07/23 00:55:55;;;;;;;1.90;1.60;;;;;;;12.67;73.37;99228.52;106395;1271;25377;-49
2023/07/23 00:58:23;;;;;;;3.00;1.60;;;;;;;12.68;73.41;99225.45;106371;1272;99418;-52
2023/07/23 01:00:52;;;;;;;2.80;1.80;;;;;;;12.70;73.39;99223.92;106469;1274;23123;-52
2023/07/23 01:03:21;;;;;;;2.30;1.40;;;;;;;12.71;73.35;99218.30;106609;1271;25416;-52
2023/07/23 01:05:50;;;;;;;2.60;1.40;;;;;;;12.73;73.50;99217.30;106453;1273;99392;-53
2023/07/23 01:08:20;;;;;;;3.70;1.20;;;;;;;12.75;73.46;99214.02;106668;1271;25387;-51
2023/07/23 01:10:49;;;;;;;2.00;1.50;;;;;;;12.79;73.49;99210.63;106737;1272;99217;-51
2023/07/23 01:13:18;;;;;;;2.00;1.40;;;;;;;12.80;73.41;99202.89;106661;1257;25500;-52
2023/07/23 01:15:47;;;;;;;1.40;1.10;;;;;;;12.82;73.46;99205.73;106411;1272;25555;-53
2023/07/23 01:18:18;;;;;;;2.00;1.40;;;;;;;12.84;73.58;99211.20;106491;1272;98832;-52
2023/07/23 01:20:46;;;;;;;2.30;1.30;;;;;;;12.86;73.56;99212.67;106503;1272;25619;-51
2023/07/23 01:23:15;;;;;;;2.10;1.50;;;;;;;12.88;73.62;99215.13;106304;1271;99917;-53
2023/07/23 01:25:44;;;;;;;2.90;1.30;;;;;;;12.91;73.64;99214.41;106404;1272;25260;-52
2023/07/23 01:28:14;;;;;;;2.00;1.50;;;;;;;12.95;73.64;99202.08;106296;1271;100939;-47
2023/07/23 01:30:43;;;;;;;2.50;1.60;;;;;;;12.99;73.57;99200.08;106509;1272;25244;-52
2023/07/23 01:33:13;;;;;;;2.20;1.40;;;;;;;13.01;73.61;99199.94;106529;1272;22587;-52
2023/07/23 01:35:44;;;;;;;2.00;1.40;;;;;;;13.03;73.72;99194.38;106463;1273;99755;-52
2023/07/23 01:38:15;;;;;;;1.70;1.40;;;;;;;13.06;73.69;99191.96;106433;1272;23688;-52
2023/07/23 01:40:45;;;;;;;2.50;1.50;;;;;;;13.08;73.77;99191.95;106288;1274;99269;-50
2023/07/23 01:43:15;;;;;;;2.90;1.30;;;;;;;13.11;73.69;99191.23;106310;1273;25522;-53
2023/07/23 01:45:44;;;;;;;2.00;1.30;;;;;;;13.14;73.79;99192.45;106451;1277;22655;-52
2023/07/23 01:48:15;;;;;;;2.40;1.90;;;;;;;13.18;73.81;99193.56;106335;1273;99897;-52
2023/07/23 01:50:44;;;;;;;2.20;1.60;;;;;;;13.21;73.74;99192.47;106506;1272;25445;-51
2023/07/23 01:53:13;;;;;;;2.60;1.50;;;;;;;13.24;73.70;99191.10;106170;1272;99221;-52
2023/07/23 01:55:42;;;;;;;2.00;1.70;;;;;;;13.27;73.84;99187.27;106602;1265;25341;-52
2023/07/23 01:58:10;;;;;;;2.60;1.70;;;;;;;13.29;73.65;99187.84;106419;1272;99776;-53
2023/07/23 02:00:40;;;;;;;1.40;1.20;;;;;;;13.32;73.68;99188.85;106636;1272;22607;-53
2023/07/23 02:03:09;;;;;;;1.80;1.60;;;;;;;13.36;73.81;99193.28;106512;1272;24228;-53
2023/07/23 02:05:38;;;;;;;1.80;1.30;;;;;;;13.39;73.77;99197.83;106399;1272;99220;-49
2023/07/23 02:08:06;;;;;;;2.20;1.50;;;;;;;13.41;73.78;99195.23;106547;1271;25402;-53
2023/07/23 02:10:35;;;;;;;3.50;1.70;;;;;;;13.43;73.79;99192.61;106445;1272;99422;-53
2023/07/23 02:13:04;;;;;;;2.60;1.60;;;;;;;13.44;73.61;99179.80;106386;1273;22530;-51
2023/07/23 02:15:33;;;;;;;2.30;1.60;;;;;;;13.44;73.59;99181.05;106430;1272;22526;-52
2023/07/23 02:18:02;;;;;;;1.60;1.20;;;;;;;13.44;73.69;99188.21;106505;1271;99262;-52
2023/07/23 02:20:31;;;;;;;1.70;1.40;;;;;;;13.44;73.81;99188.00;106449;1273;22614;-55
2023/07/23 02:23:00;;;;;;;1.60;1.40;;;;;;;13.45;73.78;99177.16;106316;1272;103476;-53
2023/07/23 02:25:29;;;;;;;2.00;1.20;;;;;;;13.45;73.60;99171.75;106564;1268;25361;-53
2023/07/23 02:27:57;;;;;;;2.30;1.30;;;;;;;13.45;73.62;99171.39;106489;1272;99418;-51
2023/07/23 02:30:27;;;;;;;2.60;1.40;;;;;;;13.43;73.67;99171.11;106313;1272;25341;-52
2023/07/23 02:32:55;;;;;;;1.90;1.20;;;;;;;13.41;73.69;99168.29;106390;1275;25457;-52
2023/07/23 02:35:24;;;;;;;2.20;1.30;;;;;;;13.40;73.84;99174.85;106234;1272;99149;-52
2023/07/23 02:37:53;;;;;;;2.30;1.10;;;;;;;13.40;73.98;99172.23;106586;1272;22530;-52
2023/07/23 02:40:21;;;;;;;1.40;1.30;;;;;;;13.37;73.83;99172.05;106262;1273;99596;-52
2023/07/23 02:42:50;;;;;;;2.80;1.60;;;;;;;13.28;73.78;99171.99;106488;1271;23206;-52
2023/07/23 02:45:18;;;;;;;3.30;1.40;;;;;;;13.18;74.01;99171.38;106596;1271;22519;-51
2023/07/23 02:47:47;;;;;;;2.10;1.50;;;;;;;13.08;74.21;99171.17;106361;1271;99199;-51
2023/07/23 02:50:16;;;;;;;2.10;1.60;;;;;;;12.98;74.25;99169.59;106400;1273;27082;-50
2023/07/23 02:52:44;;;;;;;2.20;1.50;;;;;;;12.78;74.46;99175.59;106438;1271;99646;-50
2023/07/23 02:55:13;;;;;;;2.30;1.70;;;;;;;12.58;75.07;99178.98;106528;1271;25287;-50
2023/07/23 02:57:42;;;;;;;2.10;1.70;;;;;;;12.49;75.26;99180.79;106522;1272;25476;-48
2023/07/23 03:00:14;;;;;;;3.30;1.80;;;;;;;12.47;75.68;99184.09;106117;1272;99084;-49
2023/07/23 03:02:42;;;;;;;2.70;2.10;;;;;;;12.42;75.94;99182.48;106420;1273;22529;-49
2023/07/23 03:05:11;;;;;;;3.70;2.10;;;;;;;12.39;76.44;99186.85;106455;1271;99335;-53
2023/07/23 03:07:39;;;;;;;2.40;2.10;;;;;;;12.38;76.74;99191.27;106514;1272;22660;-50
2023/07/23 03:10:08;;;;;;;3.10;2.10;;;;;;;12.33;76.59;99194.72;106457;1271;99481;-49
2023/07/23 03:12:37;;;;;;;3.70;1.80;;;;;;;12.32;76.94;99195.95;106453;1272;25326;-49
2023/07/23 03:15:06;;;;;;;4.90;2.40;;;;;;;12.33;76.95;99194.03;106535;1272;25300;-48
2023/07/23 03:17:35;;;;;;;3.60;2.30;;;;;;;12.31;77.19;99194.48;106325;1272;99195;-51
2023/07/23 03:20:04;;;;;;;6.00;2.30;;;;;;;12.29;77.30;99195.14;106396;1272;24050;-50
2023/07/23 03:22:33;;;;;;;3.20;2.30;;;;;;;12.29;77.58;99191.98;106391;1271;99282;-49
2023/07/23 03:25:02;;;;;;;5.20;2.40;;;;;;;12.28;77.72;99190.95;106343;1273;25424;-48
2023/07/23 03:27:30;;;;;;;3.10;2.50;;;;;;;12.28;77.86;99187.30;106443;1273;26641;-51
2023/07/23 03:29:59;;;;;;;3.40;2.50;;;;;;;12.29;78.05;99184.27;106420;1273;100223;-48
2023/07/23 03:32:28;;;;;;;3.40;2.70;;;;;;;12.25;78.05;99185.77;106619;1273;22640;-54
2023/07/23 03:34:57;;;;;;;3.20;2.30;;;;;;;12.24;78.38;99191.27;106375;1273;99456;-52
2023/07/23 03:37:25;;;;;;;3.10;2.70;;;;;;;12.22;78.62;99193.95;106607;1273;25340;-46
2023/07/23 03:39:54;;;;;;;3.90;2.70;;;;;;;12.20;78.71;99191.34;106315;1273;99422;-48
2023/07/23 03:42:24;;;;;;;4.10;2.70;;;;;;;12.22;78.99;99193.10;106454;1273;25355;-52
2023/07/23 03:44:53;;;;;;;4.30;3.20;;;;;;;12.24;79.08;99190.70;106423;1273;22567;-54
2023/07/23 03:47:21;;;;;;;3.30;3.00;;;;;;;12.22;79.21;99192.41;106338;1273;99658;-47
2023/07/23 03:49:50;;;;;;;3.00;2.60;;;;;;;12.25;79.47;99190.33;106343;1273;25247;-48
2023/07/23 03:52:19;;;;;;;4.70;3.30;;;;;;;12.27;79.65;99184.08;106257;1273;99591;-50
2023/07/23 03:54:47;;;;;;;10.00;3.20;;;;;;;12.27;79.73;99183.38;106429;1273;25351;-49
2023/07/23 03:57:16;;;;;;;3.90;3.10;;;;;;;12.27;79.95;99183.73;106575;1273;22527;-52
2023/07/23 03:59:46;;;;;;;4.10;3.00;;;;;;;12.29;80.21;99182.37;106358;1274;99180;-48
2023/07/23 04:02:15;;;;;;;4.90;3.30;;;;;;;12.30;80.58;99181.80;106420;1274;22545;-51
2023/07/23 04:04:44;;;;;;;5.80;4.10;;;;;;;12.32;80.57;99185.36;106390;1273;99182;-52
2023/07/23 04:07:12;;;;;;;4.40;3.20;;;;;;;12.32;80.75;99184.81;106328;1273;26726;-48
2023/07/23 04:09:41;;;;;;;3.50;3.20;;;;;;;12.34;81.00;99187.84;106418;1266;22526;-51
2023/07/23 04:12:11;;;;;;;4.00;3.10;;;;;;;12.30;81.01;99182.47;106531;1273;99198;-51
2023/07/23 04:14:43;;;;;;;6.80;3.80;;;;;;;12.31;81.09;99182.79;106476;1273;25380;-53
2023/07/23 04:17:12;;;;;;;4.30;3.30;;;;;;;12.34;81.38;99180.34;106284;1270;99242;-51
2023/07/23 04:19:45;;;;;;;4.50;3.60;;;;;;;12.36;81.49;99178.16;106400;1273;22799;-52
2023/07/23 04:22:13;;;;;;;3.80;3.20;;;;;;;12.40;81.73;99173.48;106392;1273;99356;-51
2023/07/23 04:24:42;;;;;;;3.80;3.20;;;;;;;12.41;81.71;99173.30;106395;1274;22784;-50
2023/07/23 04:27:10;;;;;;;5.40;3.50;;;;;;;12.45;81.83;99172.17;106222;1274;52741;-52
2023/07/23 04:29:39;;;;;;;4.30;3.60;;;;;;;12.45;81.94;99172.66;106227;1273;99493;-51
2023/07/23 04:32:09;;;;;;;6.20;3.50;;;;;;;12.45;81.98;99172.29;106275;1264;24211;-51
2023/07/23 04:34:41;;;;;;;4.60;4.10;;;;;;;12.45;82.03;99169.16;106875;1273;99247;-53
2023/07/23 04:37:13;;;;;;;4.30;3.50;;;;;;;12.47;82.26;99170.10;106582;1273;25313;-52
2023/07/23 04:39:42;;;;;;;4.60;3.40;;;;;;;12.51;82.48;99173.66;106688;1277;22546;-52
2023/07/23 04:42:11;;;;;;;5.00;3.80;;;;;;;12.53;82.51;99173.73;106880;1274;99167;-51
2023/07/23 04:44:43;;;;;;;4.30;3.80;;;;;;;12.58;82.78;99170.40;106739;1273;22545;-52
2023/07/23 04:47:17;;;;;;;5.60;4.00;;;;;;;12.60;82.86;99169.04;106956;1273;99268;-52
2023/07/23 04:49:46;;;;;;;4.20;3.30;;;;;;;12.61;82.96;99164.81;106610;1273;24357;-52
2023/07/23 04:52:15;;;;;;;4.60;4.00;;;;;;;12.63;83.08;99164.35;106428;1273;99448;-52
2023/07/23 04:54:44;;;;;;;5.70;4.10;;;;;;;12.69;83.36;99159.25;106631;1273;25254;-52
2023/07/23 04:57:13;;;;;;;5.40;4.10;;;;;;;12.73;83.27;99155.66;106320;1273;23371;-53
2023/07/23 04:59:44;;;;;;;4.90;4.10;;;;;;;12.76;83.45;99152.98;106477;1273;100154;-52
2023/07/23 05:02:13;;;;;;;5.70;3.80;;;;;;;12.78;83.59;99153.61;106636;1274;25301;-53
2023/07/23 05:04:43;;;;;;;7.90;4.10;;;;;;;12.83;83.87;99152.74;107080;1267;99284;-54
2023/07/23 05:07:16;;;;;;;4.90;4.10;;;;;;;12.87;84.02;99153.69;106559;1273;22703;-52
2023/07/23 05:09:45;;;;;;;4.90;4.40;;;;;;;12.92;84.30;99150.43;106534;1276;22527;-53
2023/07/23 05:12:18;;;;;;;4.60;4.10;;;;;;;13.05;84.76;99147.30;106648;1274;98881;-53
2023/07/23 05:14:51;;;;;;;5.30;4.30;;;;;;;13.07;84.42;99143.29;106661;1273;23276;-51
2023/07/23 05:17:20;;;;;;;5.30;4.80;;;;;;;13.10;84.58;99140.64;106694;1274;99162;-51
2023/07/23 05:19:52;;;;;;;5.00;4.20;;;;;;;13.13;84.74;99138.52;106650;1273;24268;-52
2023/07/23 05:22:24;;;;;;;4.80;4.00;;;;;;;13.15;84.80;99132.41;106621;1274;99474;-51
2023/07/23 05:24:53;;;;;;;5.10;4.40;;;;;;;13.22;85.00;99130.90;106670;1273;22547;-49
2023/07/23 05:27:29;;;;;;;5.30;3.80;;;;;;;13.28;85.08;99129.55;106885;1273;26691;-52
2023/07/23 05:30:03;;;;;;;4.50;4.10;;;;;;;13.35;85.24;99126.24;107027;1273;99180;-51
2023/07/23 05:32:54;;;;;;;6.90;4.20;;;;;;;13.49;85.43;99125.08;106560;1273;22675;-52
2023/07/23 05:35:22;;;;;;;6.60;4.30;;;;;;;13.62;85.60;99120.86;106376;1274;99186;-53
2023/07/23 05:37:51;;;;;;;6.10;4.80;;;;;;;13.83;85.96;99121.34;106439;1274;22617;-51
2023/07/23 05:40:22;;;;;;;5.90;4.20;;;;;;;14.01;85.69;99116.25;106496;1274;99458;-53
2023/07/23 05:42:55;;;;;;;5.50;4.80;;;;;;;14.19;85.86;99111.13;106755;1274;25607;-51
2023/07/23 05:45:24;;;;;;;5.50;3.90;;;;;;;14.36;85.86;99110.23;106592;1274;22525;-53
2023/07/23 05:47:53;;;;;;;5.00;4.30;;;;;;;14.52;85.57;99107.34;106864;1273;99599;-52
2023/07/23 05:50:24;;;;;;;5.70;4.60;;;;;;;14.62;86.27;99104.67;106806;1273;22582;-53
2023/07/23 05:52:53;;;;;;;6.70;4.40;;;;;;;14.69;86.96;99105.05;107094;1273;99296;-54
2023/07/23 05:55:22;;;;;;;5.80;4.60;;;;;;;14.75;86.90;99101.09;106652;1273;23515;-53
2023/07/23 05:57:55;;;;;;;5.00;4.20;;;;;;;14.74;86.67;99097.48;106907;1273;24235;-51
2023/07/23 06:00:24;;;;;;;4.40;4.00;;;;;;;14.68;85.94;99097.55;106990;1273;22527;-52
2023/07/23 06:02:52;;;;;;;7.00;4.10;;;;;;;14.68;86.05;99095.65;106525;1273;22642;-53
2023/07/23 06:05:22;;;;;;;5.10;4.60;;;;;;;14.77;86.11;99095.53;106657;1274;99164;-53
2023/07/23 06:07:51;;;;;;;4.80;4.30;;;;;;;14.84;86.00;99099.57;106961;1273;24276;-52
2023/07/23 06:10:20;;;;;;;5.40;4.40;;;;;;;14.89;86.04;99098.77;106475;1274;99296;-52
2023/07/23 06:12:48;;;;;;;6.20;4.10;;;;;;;15.02;86.19;99088.74;106489;1274;22956;-53
2023/07/23 06:15:17;;;;;;;5.20;4.30;;;;;;;15.03;85.63;99090.41;106478;1261;24290;-53
2023/07/23 06:17:47;;;;;;;5.20;4.20;;;;;;;14.99;85.52;99081.71;106410;1273;100934;-54
2023/07/23 06:20:16;;;;;;;4.80;4.30;;;;;;;14.99;85.68;99081.92;106578;1273;22660;-51
2023/07/23 06:22:45;;;;;;;5.80;4.80;;;;;;;15.06;86.00;99077.56;106399;1273;99384;-53
2023/07/23 06:25:14;;;;;;;4.90;4.10;;;;;;;15.12;85.86;99077.62;106547;1271;22563;-54
2023/07/23 06:27:42;;;;;;;4.80;4.30;;;;;;;15.16;85.89;99070.30;106440;1272;22526;-54
2023/07/23 06:30:11;;;;;;;7.50;4.40;;;;;;;15.22;86.38;99071.41;106464;1271;100837;-54
2023/07/23 06:32:41;;;;;;;5.40;4.60;;;;;;;15.33;86.61;99077.78;106664;1272;25453;-54
2023/07/23 06:35:10;;;;;;;5.10;4.20;;;;;;;15.42;86.51;99071.64;106520;1272;99844;-54
2023/07/23 06:37:40;;;;;;;5.40;4.20;;;;;;;15.55;86.20;99071.66;106569;1272;22622;-54
2023/07/23 06:40:13;;;;;;;5.80;4.10;;;;;;;15.62;85.98;99068.82;106561;1271;99293;-53
2023/07/23 06:42:42;;;;;;;5.50;4.40;;;;;;;15.74;86.31;99068.27;106541;1271;22547;-54
2023/07/23 06:45:12;;;;;;;4.40;4.00;;;;;;;15.84;85.87;99063.99;106584;1271;25520;-54
2023/07/23 06:47:41;;;;;;;4.50;4.00;;;;;;;15.86;86.04;99064.17;106676;1271;99658;-52
2023/07/23 06:50:10;;;;;;;4.90;4.40;;;;;;;15.85;85.68;99064.03;106749;1268;25349;-54
2023/07/23 06:52:41;;;;;;;6.50;4.50;;;;;;;15.85;86.03;99060.73;106630;1272;100146;-55
2023/07/23 06:55:23;;;;;;;5.80;4.60;;;;;;;15.92;86.05;99060.71;107551;1272;25490;-55
2023/07/23 06:57:52;;;;;;;6.20;4.70;;;;;;;15.94;85.72;99056.37;106704;1272;23806;-53
2023/07/23 07:00:22;;;;;;;4.10;3.70;;;;;;;15.90;85.73;99060.34;106678;1274;99103;-54
2023/07/23 07:02:53;;;;;;;4.60;4.10;;;;;;;15.85;85.58;99057.58;106660;1271;22566;-53
2023/07/23 07:05:23;;;;;;;5.30;4.20;;;;;;;15.82;85.63;99059.23;106399;1272;99573;-52
2023/07/23 07:07:52;;;;;;;5.00;4.00;;;;;;;15.79;85.70;99058.89;106441;1275;26621;-52
2023/07/23 07:10:20;;;;;;;6.80;4.40;;;;;;;15.79;85.87;99057.55;106576;1271;99495;-53
2023/07/23 07:12:52;;;;;;;5.80;4.40;;;;;;;15.78;86.16;99053.95;106759;1271;25295;-54
2023/07/23 07:15:23;;;;;;;5.80;4.10;;;;;;;15.86;86.42;99051.14;106620;1271;22543;-54
2023/07/23 07:17:52;;;;;;;6.90;4.90;;;;;;;15.91;86.20;99045.71;106836;1271;100636;-54
2023/07/23 07:20:26;;;;;;;7.20;4.50;;;;;;;15.97;86.41;99046.14;106768;1256;24287;-54
2023/07/23 07:22:58;;;;;;;6.70;4.30;;;;;;;16.12;86.62;99044.84;106381;1256;99294;-53
2023/07/23 07:25:29;;;;;;;5.70;4.00;;;;;;;16.27;86.29;99039.64;106566;1271;24215;-55
2023/07/23 07:27:59;;;;;;;5.60;4.70;;;;;;;16.39;86.30;99036.70;106270;1272;99254;-55
2023/07/23 07:30:27;;;;;;;6.40;4.60;;;;;;;16.72;87.17;99035.77;106474;1271;27034;-55
2023/07/23 07:32:56;;;;;;;5.50;4.30;;;;;;;17.18;86.54;99036.80;106662;1272;25492;-54
2023/07/23 07:35:25;;;;;;;5.20;3.90;;;;;;;17.48;85.80;99036.36;106452;1272;99154;-53
2023/07/23 07:37:54;;;;;;;4.40;4.00;;;;;;;17.80;85.78;99032.69;106810;1271;22526;-55
2023/07/23 07:40:27;;;;;;;5.40;3.90;;;;;;;18.19;85.95;99030.30;106849;1271;99800;-55
2023/07/23 07:42:56;;;;;;;4.10;3.60;;;;;;;18.61;85.21;99027.52;106594;1272;23367;-56
2023/07/23 07:45:26;;;;;;;4.30;3.80;;;;;;;18.78;84.59;99026.66;106641;1271;22527;-55
2023/07/23 07:47:55;;;;;;;6.90;3.70;;;;;;;18.86;83.66;99022.61;106697;1271;101076;-53
2023/07/23 07:50:24;;;;;;;5.30;4.00;;;;;;;18.88;82.98;99022.77;106986;1271;22541;-57
2023/07/23 07:52:53;;;;;;;5.70;3.40;;;;;;;19.20;84.19;99017.19;106492;1263;99123;-55
2023/07/23 07:55:23;;;;;;;4.50;3.70;;;;;;;19.51;83.76;99018.08;106650;1271;23059;-57
2023/07/23 07:57:55;;;;;;;4.70;3.60;;;;;;;19.63;82.36;99013.62;106668;1271;22916;-55
2023/07/23 08:00:24;;;;;;;3.90;3.40;;;;;;;19.62;82.27;99008.77;106364;1272;99064;-55
2023/07/23 08:02:54;;;;;;;5.70;3.50;;;;;;;19.53;81.37;99007.31;106638;1272;290947;-55
2023/07/23 08:05:24;;;;;;;5.30;3.80;;;;;;;19.33;81.23;98996.70;106606;1271;99308;-56
2023/07/23 08:07:55;;;;;;;4.80;3.70;;;;;;;19.27;82.13;98997.29;106577;1272;25302;-55
2023/07/23 08:10:24;;;;;;;5.00;3.70;;;;;;;19.29;81.73;98993.38;106498;1272;99269;-56
2023/07/23 08:12:55;;;;;;;5.90;3.50;;;;;;;19.25;81.19;98989.19;106512;1274;24271;-56
2023/07/23 08:15:24;;;;;;;3.90;3.00;;;;;;;19.12;80.87;98988.59;106529;1272;22519;-55
2023/07/23 08:17:53;;;;;;;4.50;3.20;;;;;;;19.06;81.12;98979.88;106966;1270;99149;-55
2023/07/23 08:20:23;;;;;;;4.10;3.30;;;;;;;19.10;81.22;98979.66;106602;1269;22878;-55
2023/07/23 08:22:54;;;;;;;3.80;3.40;;;;;;;19.26;81.44;98984.25;106424;1272;99250;-55
2023/07/23 08:25:25;;;;;;;3.70;3.30;;;;;;;19.28;80.00;98987.28;106544;1274;22530;-54
2023/07/23 08:28:00;;;;;;;5.20;3.30;;;;;;;19.14;78.82;98991.43;106910;1272;25307;-55
2023/07/23 08:30:38;;;;;;;4.00;3.40;;;;;;;18.97;78.99;98983.30;106766;1273;22961;-54
2023/07/23 08:33:07;;;;;;;5.60;3.40;;;;;;;18.84;78.33;98989.46;106573;1272;22523;-52
2023/07/23 08:35:37;;;;;;;3.80;3.40;;;;;;;18.63;78.56;98984.71;106630;1271;99188;-54
2023/07/23 08:38:10;;;;;;;3.40;3.10;;;;;;;18.54;79.01;98984.27;106908;1272;24271;-53
2023/07/23 08:41:02;;;;;;;4.50;3.30;;;;;;;18.43;78.33;98984.61;106380;1274;99159;-54
2023/07/23 08:43:44;;;;;;;3.70;3.00;;;;;;;18.27;78.11;98982.05;106406;1274;24269;-56
2023/07/23 08:46:25;;;;;;;4.00;3.50;;;;;;;18.12;78.60;98975.61;106443;1274;99713;-56
2023/07/23 08:49:06;;;;;;;4.30;2.70;;;;;;;18.08;78.82;98971.20;106507;1274;22556;-55
2023/07/23 08:51:43;;;;;;;4.70;3.50;;;;;;;18.10;78.75;98968.86;106368;1275;24248;-54
2023/07/23 08:54:15;;;;;;;4.80;3.10;;;;;;;18.18;78.92;98961.35;106320;1274;99456;-55
2023/07/23 08:56:49;;;;;;;4.10;3.30;;;;;;;18.29;78.04;98959.06;107659;1277;22654;-55
2023/07/23 08:59:21;;;;;;;3.70;3.30;;;;;;;18.43;78.29;98962.05;106381;1274;108577;-54
2023/07/23 09:02:00;;;;;;;4.20;3.40;;;;;;;18.73;78.36;98962.46;106379;1275;24276;-56
2023/07/23 09:04:31;;;;;;;3.70;3.30;;;;;;;19.07;78.29;98962.10;106430;1271;99606;-55
2023/07/23 09:07:02;;;;;;;4.10;3.10;;;;;;;19.43;77.63;98961.45;107341;1274;25352;-56
2023/07/23 09:09:32;;;;;;;3.40;3.10;;;;;;;19.77;77.55;98964.73;106502;1277;24268;-55
2023/07/23 09:12:04;;;;;;;3.70;3.40;;;;;;;20.15;77.32;98961.94;107098;1275;99142;-56
2023/07/23 09:14:43;;;;;;;5.70;3.20;;;;;;;20.55;76.84;98954.96;106400;1274;24402;-56
2023/07/23 09:17:17;;;;;;;;;;;;;;;21.05;76.25;98955.52;106863;1274;99211;-55
2023/07/23 09:19:46;;;;;;;4.30;3.30;;;;;;;21.42;75.51;98954.48;106600;1272;22551;-57
2023/07/23 09:22:17;;;;;;;3.30;3.00;;;;;;;21.64;74.90;98953.40;106343;1272;100376;-57
2023/07/23 09:24:46;;;;;;;7.00;3.10;;;;;;;21.79;74.65;98951.21;106671;1274;23965;-57
2023/07/23 09:27:19;;;;;;;3.10;2.80;;;;;;;21.86;73.65;98947.70;106878;1275;22536;-56
2023/07/23 09:29:49;;;;;;;4.90;3.00;;;;;;;21.94;73.15;98948.19;106522;1274;99248;-56
2023/07/23 09:32:23;;;;;;;3.60;3.10;;;;;;;22.08;73.60;98949.64;106526;1275;22537;-55
2023/07/23 09:34:59;;;;;;;6.80;3.60;;;;;;;22.32;73.03;98952.27;106485;1275;101767;-57
2023/07/23 09:37:37;;;;;;;6.60;3.20;;;;;;;22.39;71.56;98949.86;106840;1274;23182;-55
2023/07/23 09:40:07;;;;;;;4.10;2.90;;;;;;;22.31;71.58;98955.22;106632;1275;22556;-56
2023/07/23 09:42:43;;;;;;;3.70;3.00;;;;;;;22.26;71.47;98959.45;106716;1264;22551;-56
2023/07/23 09:45:15;;;;;;;6.80;3.50;;;;;;;22.16;71.06;98955.00;106579;1275;22776;-57
2023/07/23 09:47:45;;;;;;;5.00;3.30;;;;;;;22.26;71.19;98956.41;106504;1274;99242;-56
2023/07/23 09:50:14;;;;;;;4.90;3.20;;;;;;;22.74;71.48;98952.63;106509;1275;26734;-58
2023/07/23 09:52:51;;;;;;;5.00;3.20;;;;;;;23.50;71.97;98952.52;106637;1274;99728;-56
2023/07/23 09:55:20;;;;;;;3.10;2.70;;;;;;;24.29;70.69;98945.61;106527;1277;22547;-57
2023/07/23 09:57:50;;;;;;;5.90;3.10;;;;;;;25.08;70.47;98950.27;106477;1273;22537;-57
2023/07/23 10:00:21;;;;;;;5.00;2.70;;;;;;;25.89;68.78;98952.44;106503;1273;101303;-57
2023/07/23 10:02:53;;;;;;;3.30;2.60;;;;;;;26.82;69.58;98947.12;106420;1274;24091;-57
2023/07/23 10:05:27;;;;;;;7.80;2.90;;;;;;;28.34;68.37;98946.52;106520;1274;99185;-58
2023/07/23 10:08:00;;;;;;;3.50;2.80;;;;;;;29.83;67.15;98945.89;106306;1278;24434;-57
2023/07/23 10:10:33;;;;;;;5.60;2.90;;;;;;;30.33;62.02;98943.23;106152;1275;100384;-59
2023/07/23 10:13:02;;;;;;;3.20;2.90;;;;;;;30.07;63.07;98946.45;106082;1280;22549;-57
2023/07/23 10:15:33;;;;;;;3.30;2.60;;;;;;;29.80;62.33;98943.27;106283;1278;22628;-58
2023/07/23 10:18:06;;;;;;;3.90;2.90;;;;;;;29.69;61.70;98940.56;105915;1280;99343;-56
2023/07/23 10:20:41;;;;;;;4.90;2.60;;;;;;;29.79;61.31;98940.92;106105;1282;22553;-58
2023/07/23 10:23:11;;;;;;;4.00;3.30;;;;;;;29.54;60.22;98937.77;106419;1278;99577;-58
2023/07/23 10:25:41;;;;;;;7.30;3.70;;;;;;;29.12;58.54;98941.38;106532;1278;22536;-59
2023/07/23 10:28:23;;;;;;;3.50;2.90;;;;;;;28.71;59.02;98946.45;106076;1283;22550;-58
2023/07/23 10:31:21;;;;;;;3.90;3.40;;;;;;;28.39;58.13;98953.80;106398;1280;24093;-57
2023/07/23 10:33:55;;;;;;;3.80;3.20;;;;;;;28.18;58.29;98952.00;106814;1259;22568;-57
2023/07/23 10:36:30;;;;;;;4.10;3.10;;;;;;;28.12;57.34;98947.46;107050;1273;99200;-56
2023/07/23 10:39:23;;;;;;;7.60;3.10;;;;;;;28.14;56.32;98949.11;107324;1274;23317;-58
2023/07/23 10:42:07;;;;;;;6.70;3.60;;;;;;;27.90;54.49;98947.63;106694;1275;98253;-58
2023/07/23 10:45:15;;;;;;;4.10;3.00;;;;;;;28.28;56.32;98944.95;106669;1275;23127;-57
2023/07/23 10:47:56;;;;;;;5.60;3.10;;;;;;;29.13;56.69;98936.45;107711;1260;99767;-58
2023/07/23 10:51:10;;;;;;;3.80;3.20;;;;;;;30.22;55.98;98935.98;106571;1274;23010;-58
2023/07/23 10:53:55;;;;;;;3.20;2.80;;;;;;;30.65;54.07;98938.92;106806;1273;99254;-57
2023/07/23 10:56:33;;;;;;;6.10;3.30;;;;;;;31.42;55.18;98935.50;106594;1269;24216;-57
2023/07/23 10:59:28;;;;;;;3.70;2.90;;;;;;;33.16;54.95;98931.67;106943;1271;114284;-57
2023/07/23 11:02:15;;;;;;;3.10;2.70;;;;;;;33.75;51.40;98932.90;107076;1274;22526;-56
2023/07/23 11:04:57;;;;;;;5.10;3.10;;;;;;;32.64;49.52;98935.17;106224;1274;99727;-56
2023/07/23 11:07:30;;;;;;;5.00;3.30;;;;;;;31.50;50.55;98936.73;106930;1273;22629;-56
2023/07/23 11:10:55;;;;;;;3.20;2.80;;;;;;;30.60;50.40;98931.65;106506;1275;22912;-57
2023/07/23 11:13:35;;;;;;;3.80;3.30;;;;;;;30.26;50.69;98932.59;106944;1280;24427;-56
2023/07/23 11:16:19;;;;;;;6.30;3.20;;;;;;;30.25;49.98;98931.34;106027;1278;25179;-55
2023/07/23 11:18:49;;;;;;;3.60;2.80;;;;;;;30.15;49.18;98933.41;105879;1283;99787;-56
2023/07/23 11:21:20;;;;;;;4.70;3.20;;;;;;;29.54;48.57;98935.19;106044;1280;22615;-55
2023/07/23 11:23:52;;;;;;;4.00;2.90;;;;;;;29.04;48.03;98930.14;106715;1283;99208;-55
2023/07/23 11:26:26;;;;;;;3.20;2.80;;;;;;;28.31;48.00;98933.77;106356;1280;22551;-56
2023/07/23 11:28:58;;;;;;;3.50;3.10;;;;;;;27.58;47.72;98927.33;106979;1280;99414;-55
2023/07/23 11:31:29;;;;;;;3.40;3.10;;;;;;;26.79;47.58;98931.79;105998;1283;24257;-54
2023/07/23 11:34:00;;;;;;;7.70;3.50;;;;;;;25.87;47.11;98933.59;106971;1281;25311;-55
2023/07/23 11:36:29;;;;;;;4.20;3.20;;;;;;;24.96;47.42;98939.59;108904;1280;99827;-59
2023/07/23 11:38:58;;;;;;;3.40;3.10;;;;;;;24.28;47.73;98938.18;106106;1281;25552;-55
2023/07/23 11:41:34;;;;;;;3.70;3.20;;;;;;;24.49;49.37;98934.36;106306;1279;99369;-56
2023/07/23 11:44:08;;;;;;;9.60;3.40;;;;;;;26.10;49.78;98933.59;106350;1273;24204;-57